sensor_id;sensor_type;location;lat;lon;timestamp;P1;durP1;ratioP1;P2;durP2;ratioP2
56183;SDS011;42086;53.170;6.980;2022-11-03T00:00:29;13.43;;;2.42;;
56183;SDS011;42086;53.170;6.980;2022-11-03T00:02:55;12.80;;;2.30;;
56183;SDS011;42086;53.170;6.980;2022-11-03T00:05:21;13.52;;;2.20;;
56183;SDS011;42086;53.170;6.980;2022-11-03T00:08:05;8.85;;;2.03;;
56183;SDS011;42086;53.170;6.980;2022-11-03T00:10:31;9.98;;;1.98;;
56183;SDS011;42086;53.170;6.980;2022-11-03T00:12:56;14.40;;;1.95;;
56183;SDS011;42086;53.170;6.980;2022-11-03T00:15:22;10.55;;;2.10;;
56183;SDS011;42086;53.170;6.980;2022-11-03T00:17:47;11.30;;;1.67;;
56183;SDS011;42086;53.170;6.980;2022-11-03T00:20:13;12.57;;;2.33;;
56183;SDS011;42086;53.170;6.980;2022-11-03T00:22:39;11.45;;;2.15;;
56183;SDS011;42086;53.170;6.980;2022-11-03T00:25:05;10.80;;;2.15;;
56183;SDS011;42086;53.170;6.980;2022-11-03T00:27:31;13.73;;;2.65;;
56183;SDS011;42086;53.170;6.980;2022-11-03T00:29:56;10.73;;;2.42;;
56183;SDS011;42086;53.170;6.980;2022-11-03T00:32:22;6.55;;;1.80;;
56183;SDS011;42086;53.170;6.980;2022-11-03T00:34:48;12.77;;;2.10;;
56183;SDS011;42086;53.170;6.980;2022-11-03T00:37:13;8.18;;;1.95;;
56183;SDS011;42086;53.170;6.980;2022-11-03T00:39:39;9.68;;;2.05;;
56183;SDS011;42086;53.170;6.980;2022-11-03T00:42:05;11.05;;;2.22;;
56183;SDS011;42086;53.170;6.980;2022-11-03T00:44:30;11.30;;;1.70;;
56183;SDS011;42086;53.170;6.980;2022-11-03T00:46:56;9.15;;;1.80;;
56183;SDS011;42086;53.170;6.980;2022-11-03T00:49:22;11.40;;;1.80;;
56183;SDS011;42086;53.170;6.980;2022-11-03T00:51:47;11.40;;;2.03;;
56183;SDS011;42086;53.170;6.980;2022-11-03T00:54:13;9.88;;;1.90;;
56183;SDS011;42086;53.170;6.980;2022-11-03T00:56:39;8.63;;;2.08;;
56183;SDS011;42086;53.170;6.980;2022-11-03T00:59:07;11.48;;;2.20;;
56183;SDS011;42086;53.170;6.980;2022-11-03T01:01:34;10.88;;;2.10;;
56183;SDS011;42086;53.170;6.980;2022-11-03T01:04:04;12.15;;;2.35;;
56183;SDS011;42086;53.170;6.980;2022-11-03T01:06:49;8.05;;;1.67;;
56183;SDS011;42086;53.170;6.980;2022-11-03T01:11:58;7.88;;;1.92;;
56183;SDS011;42086;53.170;6.980;2022-11-03T01:17:22;15.50;;;2.47;;
56183;SDS011;42086;53.170;6.980;2022-11-03T01:19:49;12.75;;;2.20;;
56183;SDS011;42086;53.170;6.980;2022-11-03T01:22:16;12.80;;;2.08;;
56183;SDS011;42086;53.170;6.980;2022-11-03T01:24:42;16.88;;;2.25;;
56183;SDS011;42086;53.170;6.980;2022-11-03T01:27:09;11.90;;;2.13;;
56183;SDS011;42086;53.170;6.980;2022-11-03T01:29:39;8.73;;;2.90;;
56183;SDS011;42086;53.170;6.980;2022-11-03T01:32:05;8.52;;;1.98;;
56183;SDS011;42086;53.170;6.980;2022-11-03T01:34:32;9.68;;;2.47;;
56183;SDS011;42086;53.170;6.980;2022-11-03T01:36:58;11.80;;;1.85;;
56183;SDS011;42086;53.170;6.980;2022-11-03T01:39:23;10.90;;;2.00;;
56183;SDS011;42086;53.170;6.980;2022-11-03T01:41:50;12.98;;;2.28;;
56183;SDS011;42086;53.170;6.980;2022-11-03T01:46:47;7.78;;;2.22;;
56183;SDS011;42086;53.170;6.980;2022-11-03T01:49:16;11.05;;;2.10;;
56183;SDS011;42086;53.170;6.980;2022-11-03T01:51:46;6.45;;;1.70;;
56183;SDS011;42086;53.170;6.980;2022-11-03T01:56:44;13.77;;;2.42;;
56183;SDS011;42086;53.170;6.980;2022-11-03T01:59:11;11.60;;;2.55;;
56183;SDS011;42086;53.170;6.980;2022-11-03T02:01:39;13.48;;;2.30;;
56183;SDS011;42086;53.170;6.980;2022-11-03T02:04:10;10.63;;;2.38;;
56183;SDS011;42086;53.170;6.980;2022-11-03T02:06:40;12.82;;;2.22;;
56183;SDS011;42086;53.170;6.980;2022-11-03T02:09:07;11.88;;;2.65;;
56183;SDS011;42086;53.170;6.980;2022-11-03T02:11:34;14.82;;;2.17;;
56183;SDS011;42086;53.170;6.980;2022-11-03T02:14:19;11.05;;;2.25;;
56183;SDS011;42086;53.170;6.980;2022-11-03T02:16:50;16.05;;;2.40;;
56183;SDS011;42086;53.170;6.980;2022-11-03T02:27:41;14.63;;;2.33;;
56183;SDS011;42086;53.170;6.980;2022-11-03T02:30:07;13.10;;;2.40;;
56183;SDS011;42086;53.170;6.980;2022-11-03T02:32:39;11.13;;;2.60;;
56183;SDS011;42086;53.170;6.980;2022-11-03T02:35:25;11.77;;;2.40;;
56183;SDS011;42086;53.170;6.980;2022-11-03T02:37:58;10.20;;;2.30;;
56183;SDS011;42086;53.170;6.980;2022-11-03T02:40:31;13.48;;;2.45;;
56183;SDS011;42086;53.170;6.980;2022-11-03T02:43:00;16.38;;;2.63;;
56183;SDS011;42086;53.170;6.980;2022-11-03T02:45:27;13.07;;;2.40;;
56183;SDS011;42086;53.170;6.980;2022-11-03T02:47:55;15.85;;;2.40;;
56183;SDS011;42086;53.170;6.980;2022-11-03T02:50:30;12.95;;;2.60;;
56183;SDS011;42086;53.170;6.980;2022-11-03T02:52:57;9.63;;;2.72;;
56183;SDS011;42086;53.170;6.980;2022-11-03T03:00:27;13.35;;;2.42;;
56183;SDS011;42086;53.170;6.980;2022-11-03T03:05:37;12.85;;;2.90;;
56183;SDS011;42086;53.170;6.980;2022-11-03T03:08:07;13.23;;;2.70;;
56183;SDS011;42086;53.170;6.980;2022-11-03T03:10:40;14.55;;;2.90;;
56183;SDS011;42086;53.170;6.980;2022-11-03T03:13:09;10.25;;;2.80;;
56183;SDS011;42086;53.170;6.980;2022-11-03T03:21:03;12.88;;;2.92;;
56183;SDS011;42086;53.170;6.980;2022-11-03T03:23:48;14.57;;;2.78;;
56183;SDS011;42086;53.170;6.980;2022-11-03T03:26:32;10.23;;;2.80;;
56183;SDS011;42086;53.170;6.980;2022-11-03T03:29:01;12.20;;;2.70;;
56183;SDS011;42086;53.170;6.980;2022-11-03T03:31:32;13.80;;;2.72;;
56183;SDS011;42086;53.170;6.980;2022-11-03T03:34:02;12.48;;;2.60;;
56183;SDS011;42086;53.170;6.980;2022-11-03T03:36:29;11.95;;;2.53;;
56183;SDS011;42086;53.170;6.980;2022-11-03T03:38:59;10.80;;;2.42;;
56183;SDS011;42086;53.170;6.980;2022-11-03T03:41:27;10.82;;;2.67;;
56183;SDS011;42086;53.170;6.980;2022-11-03T03:43:58;12.00;;;2.90;;
56183;SDS011;42086;53.170;6.980;2022-11-03T03:46:37;10.43;;;2.80;;
56183;SDS011;42086;53.170;6.980;2022-11-03T03:49:07;13.32;;;2.90;;
56183;SDS011;42086;53.170;6.980;2022-11-03T03:51:33;9.27;;;2.63;;
56183;SDS011;42086;53.170;6.980;2022-11-03T03:53:59;6.93;;;2.05;;
56183;SDS011;42086;53.170;6.980;2022-11-03T03:56:35;14.10;;;2.92;;
56183;SDS011;42086;53.170;6.980;2022-11-03T03:59:10;12.82;;;2.83;;
56183;SDS011;42086;53.170;6.980;2022-11-03T04:01:35;11.00;;;2.53;;
56183;SDS011;42086;53.170;6.980;2022-11-03T04:04:01;14.02;;;3.58;;
56183;SDS011;42086;53.170;6.980;2022-11-03T04:06:27;9.95;;;3.05;;
56183;SDS011;42086;53.170;6.980;2022-11-03T04:08:52;15.63;;;2.78;;
56183;SDS011;42086;53.170;6.980;2022-11-03T04:11:18;12.57;;;2.85;;
56183;SDS011;42086;53.170;6.980;2022-11-03T04:14:02;13.90;;;2.83;;
56183;SDS011;42086;53.170;6.980;2022-11-03T04:16:47;13.13;;;3.58;;
56183;SDS011;42086;53.170;6.980;2022-11-03T04:19:31;14.43;;;3.13;;
56183;SDS011;42086;53.170;6.980;2022-11-03T04:22:15;11.75;;;2.67;;
56183;SDS011;42086;53.170;6.980;2022-11-03T04:24:45;12.65;;;2.78;;
56183;SDS011;42086;53.170;6.980;2022-11-03T04:32:52;9.15;;;2.75;;
56183;SDS011;42086;53.170;6.980;2022-11-03T04:35:20;11.20;;;2.60;;
56183;SDS011;42086;53.170;6.980;2022-11-03T04:37:49;10.93;;;2.50;;
56183;SDS011;42086;53.170;6.980;2022-11-03T04:40:22;11.20;;;2.40;;
56183;SDS011;42086;53.170;6.980;2022-11-03T04:42:48;14.98;;;2.80;;
56183;SDS011;42086;53.170;6.980;2022-11-03T04:47:52;11.70;;;2.50;;
56183;SDS011;42086;53.170;6.980;2022-11-03T04:50:19;13.88;;;2.95;;
56183;SDS011;42086;53.170;6.980;2022-11-03T04:52:47;12.70;;;2.65;;
56183;SDS011;42086;53.170;6.980;2022-11-03T04:55:16;9.57;;;2.35;;
56183;SDS011;42086;53.170;6.980;2022-11-03T04:57:44;7.30;;;2.25;;
56183;SDS011;42086;53.170;6.980;2022-11-03T05:00:13;15.93;;;2.83;;
56183;SDS011;42086;53.170;6.980;2022-11-03T05:02:42;9.32;;;2.40;;
56183;SDS011;42086;53.170;6.980;2022-11-03T05:05:15;16.05;;;2.53;;
56183;SDS011;42086;53.170;6.980;2022-11-03T05:07:46;12.20;;;2.90;;
56183;SDS011;42086;53.170;6.980;2022-11-03T05:10:23;11.18;;;2.78;;
56183;SDS011;42086;53.170;6.980;2022-11-03T05:12:52;7.88;;;2.10;;
56183;SDS011;42086;53.170;6.980;2022-11-03T05:15:35;11.93;;;2.42;;
56183;SDS011;42086;53.170;6.980;2022-11-03T05:18:17;12.43;;;2.47;;
56183;SDS011;42086;53.170;6.980;2022-11-03T05:20:50;9.00;;;2.10;;
56183;SDS011;42086;53.170;6.980;2022-11-03T05:23:20;10.25;;;2.08;;
56183;SDS011;42086;53.170;6.980;2022-11-03T05:25:47;10.88;;;2.45;;
56183;SDS011;42086;53.170;6.980;2022-11-03T05:28:23;11.73;;;2.50;;
56183;SDS011;42086;53.170;6.980;2022-11-03T05:30:52;16.70;;;2.67;;
56183;SDS011;42086;53.170;6.980;2022-11-03T05:33:25;11.10;;;2.40;;
56183;SDS011;42086;53.170;6.980;2022-11-03T05:35:57;6.10;;;2.30;;
56183;SDS011;42086;53.170;6.980;2022-11-03T05:38:28;12.55;;;2.70;;
56183;SDS011;42086;53.170;6.980;2022-11-03T05:40:55;11.70;;;2.55;;
56183;SDS011;42086;53.170;6.980;2022-11-03T05:43:21;8.48;;;2.30;;
56183;SDS011;42086;53.170;6.980;2022-11-03T05:45:51;13.45;;;2.55;;
56183;SDS011;42086;53.170;6.980;2022-11-03T05:50:54;9.43;;;2.67;;
56183;SDS011;42086;53.170;6.980;2022-11-03T05:53:37;11.20;;;2.30;;
56183;SDS011;42086;53.170;6.980;2022-11-03T05:56:06;11.32;;;2.47;;
56183;SDS011;42086;53.170;6.980;2022-11-03T05:58:36;9.00;;;2.40;;
56183;SDS011;42086;53.170;6.980;2022-11-03T06:01:05;8.13;;;2.40;;
56183;SDS011;42086;53.170;6.980;2022-11-03T06:03:40;9.43;;;2.60;;
56183;SDS011;42086;53.170;6.980;2022-11-03T06:06:25;13.30;;;2.28;;
56183;SDS011;42086;53.170;6.980;2022-11-03T06:08:56;14.75;;;2.80;;
56183;SDS011;42086;53.170;6.980;2022-11-03T06:11:27;9.93;;;2.65;;
56183;SDS011;42086;53.170;6.980;2022-11-03T06:13:57;10.05;;;2.53;;
56183;SDS011;42086;53.170;6.980;2022-11-03T06:19:19;13.15;;;2.58;;
56183;SDS011;42086;53.170;6.980;2022-11-03T06:21:46;9.25;;;2.25;;
56183;SDS011;42086;53.170;6.980;2022-11-03T06:24:16;9.70;;;2.40;;
56183;SDS011;42086;53.170;6.980;2022-11-03T06:26:43;10.90;;;2.63;;
56183;SDS011;42086;53.170;6.980;2022-11-03T06:29:13;10.55;;;2.45;;
56183;SDS011;42086;53.170;6.980;2022-11-03T06:31:47;8.15;;;2.17;;
56183;SDS011;42086;53.170;6.980;2022-11-03T06:36:43;8.40;;;2.20;;
56183;SDS011;42086;53.170;6.980;2022-11-03T06:39:15;12.05;;;2.85;;
56183;SDS011;42086;53.170;6.980;2022-11-03T06:41:48;8.60;;;2.40;;
56183;SDS011;42086;53.170;6.980;2022-11-03T06:44:32;10.93;;;2.30;;
56183;SDS011;42086;53.170;6.980;2022-11-03T06:46:58;8.40;;;2.40;;
56183;SDS011;42086;53.170;6.980;2022-11-03T06:49:34;9.82;;;2.75;;
56183;SDS011;42086;53.170;6.980;2022-11-03T06:54:49;12.18;;;2.67;;
56183;SDS011;42086;53.170;6.980;2022-11-03T06:57:19;8.20;;;2.40;;
56183;SDS011;42086;53.170;6.980;2022-11-03T06:59:45;9.85;;;2.60;;
56183;SDS011;42086;53.170;6.980;2022-11-03T07:02:27;12.60;;;2.85;;
56183;SDS011;42086;53.170;6.980;2022-11-03T07:04:57;9.65;;;2.28;;
56183;SDS011;42086;53.170;6.980;2022-11-03T07:07:24;9.85;;;2.45;;
56183;SDS011;42086;53.170;6.980;2022-11-03T07:09:50;12.23;;;2.78;;
56183;SDS011;42086;53.170;6.980;2022-11-03T07:12:17;12.68;;;2.60;;
56183;SDS011;42086;53.170;6.980;2022-11-03T07:14:43;12.68;;;2.45;;
56183;SDS011;42086;53.170;6.980;2022-11-03T07:17:15;8.20;;;2.50;;
56183;SDS011;42086;53.170;6.980;2022-11-03T07:19:46;12.63;;;2.88;;
56183;SDS011;42086;53.170;6.980;2022-11-03T07:22:21;10.50;;;2.50;;
56183;SDS011;42086;53.170;6.980;2022-11-03T07:24:53;9.93;;;2.30;;
56183;SDS011;42086;53.170;6.980;2022-11-03T07:27:30;10.45;;;2.80;;
56183;SDS011;42086;53.170;6.980;2022-11-03T07:30:13;14.55;;;3.22;;
56183;SDS011;42086;53.170;6.980;2022-11-03T07:32:56;8.07;;;2.42;;
56183;SDS011;42086;53.170;6.980;2022-11-03T07:35:28;12.35;;;2.83;;
56183;SDS011;42086;53.170;6.980;2022-11-03T07:38:17;11.63;;;2.28;;
56183;SDS011;42086;53.170;6.980;2022-11-03T07:40:45;8.23;;;2.35;;
56183;SDS011;42086;53.170;6.980;2022-11-03T07:48:34;11.63;;;2.90;;
56183;SDS011;42086;53.170;6.980;2022-11-03T07:51:13;10.33;;;2.50;;
56183;SDS011;42086;53.170;6.980;2022-11-03T07:54:09;8.80;;;2.35;;
56183;SDS011;42086;53.170;6.980;2022-11-03T07:56:54;7.28;;;2.38;;
56183;SDS011;42086;53.170;6.980;2022-11-03T07:59:32;10.32;;;2.40;;
56183;SDS011;42086;53.170;6.980;2022-11-03T08:04:43;12.65;;;2.55;;
56183;SDS011;42086;53.170;6.980;2022-11-03T08:07:09;11.63;;;2.83;;
56183;SDS011;42086;53.170;6.980;2022-11-03T08:09:35;6.20;;;2.22;;
56183;SDS011;42086;53.170;6.980;2022-11-03T08:12:00;10.48;;;3.03;;
56183;SDS011;42086;53.170;6.980;2022-11-03T08:14:26;11.32;;;3.05;;
56183;SDS011;42086;53.170;6.980;2022-11-03T08:16:52;9.93;;;2.33;;
56183;SDS011;42086;53.170;6.980;2022-11-03T08:19:17;8.73;;;2.65;;
56183;SDS011;42086;53.170;6.980;2022-11-03T08:21:43;13.18;;;2.60;;
56183;SDS011;42086;53.170;6.980;2022-11-03T08:24:09;14.48;;;3.10;;
56183;SDS011;42086;53.170;6.980;2022-11-03T08:26:35;13.82;;;2.40;;
56183;SDS011;42086;53.170;6.980;2022-11-03T08:29:01;9.68;;;3.15;;
56183;SDS011;42086;53.170;6.980;2022-11-03T08:31:27;12.63;;;2.75;;
56183;SDS011;42086;53.170;6.980;2022-11-03T08:33:52;10.57;;;3.00;;
56183;SDS011;42086;53.170;6.980;2022-11-03T08:36:18;10.40;;;2.90;;
56183;SDS011;42086;53.170;6.980;2022-11-03T08:38:44;8.95;;;2.67;;
56183;SDS011;42086;53.170;6.980;2022-11-03T08:41:10;10.70;;;3.10;;
56183;SDS011;42086;53.170;6.980;2022-11-03T08:43:36;11.32;;;2.90;;
56183;SDS011;42086;53.170;6.980;2022-11-03T08:46:01;12.60;;;2.85;;
56183;SDS011;42086;53.170;6.980;2022-11-03T08:48:27;9.90;;;2.97;;
56183;SDS011;42086;53.170;6.980;2022-11-03T08:50:53;12.40;;;3.17;;
56183;SDS011;42086;53.170;6.980;2022-11-03T08:53:20;11.63;;;2.92;;
56183;SDS011;42086;53.170;6.980;2022-11-03T08:55:50;13.60;;;3.30;;
56183;SDS011;42086;53.170;6.980;2022-11-03T08:58:19;9.65;;;2.97;;
56183;SDS011;42086;53.170;6.980;2022-11-03T09:00:45;10.85;;;3.30;;
56183;SDS011;42086;53.170;6.980;2022-11-03T09:03:12;14.00;;;3.05;;
56183;SDS011;42086;53.170;6.980;2022-11-03T09:05:38;12.90;;;2.80;;
56183;SDS011;42086;53.170;6.980;2022-11-03T09:08:04;12.35;;;3.10;;
56183;SDS011;42086;53.170;6.980;2022-11-03T09:10:30;12.52;;;2.90;;
56183;SDS011;42086;53.170;6.980;2022-11-03T09:12:55;7.70;;;3.00;;
56183;SDS011;42086;53.170;6.980;2022-11-03T09:15:21;15.50;;;3.40;;
56183;SDS011;42086;53.170;6.980;2022-11-03T09:17:47;11.15;;;2.97;;
56183;SDS011;42086;53.170;6.980;2022-11-03T09:20:13;11.15;;;2.63;;
56183;SDS011;42086;53.170;6.980;2022-11-03T09:22:39;11.43;;;3.28;;
56183;SDS011;42086;53.170;6.980;2022-11-03T09:25:04;13.45;;;2.80;;
56183;SDS011;42086;53.170;6.980;2022-11-03T09:27:31;11.85;;;3.00;;
56183;SDS011;42086;53.170;6.980;2022-11-03T09:29:56;10.80;;;2.60;;
56183;SDS011;42086;53.170;6.980;2022-11-03T09:32:22;13.00;;;3.45;;
56183;SDS011;42086;53.170;6.980;2022-11-03T09:34:48;8.27;;;2.40;;
56183;SDS011;42086;53.170;6.980;2022-11-03T09:37:14;9.25;;;3.08;;
56183;SDS011;42086;53.170;6.980;2022-11-03T09:39:40;11.50;;;3.10;;
56183;SDS011;42086;53.170;6.980;2022-11-03T09:42:07;9.68;;;2.40;;
56183;SDS011;42086;53.170;6.980;2022-11-03T09:44:34;8.48;;;2.70;;
56183;SDS011;42086;53.170;6.980;2022-11-03T09:47:01;10.05;;;2.53;;
56183;SDS011;42086;53.170;6.980;2022-11-03T09:49:29;14.38;;;2.60;;
56183;SDS011;42086;53.170;6.980;2022-11-03T09:51:56;10.32;;;2.90;;
56183;SDS011;42086;53.170;6.980;2022-11-03T09:54:23;10.07;;;3.05;;
56183;SDS011;42086;53.170;6.980;2022-11-03T09:56:52;12.57;;;2.88;;
56183;SDS011;42086;53.170;6.980;2022-11-03T09:59:18;9.40;;;2.72;;
56183;SDS011;42086;53.170;6.980;2022-11-03T10:01:47;12.15;;;3.13;;
56183;SDS011;42086;53.170;6.980;2022-11-03T10:04:15;14.38;;;2.88;;
56183;SDS011;42086;53.170;6.980;2022-11-03T10:06:44;12.23;;;3.05;;
56183;SDS011;42086;53.170;6.980;2022-11-03T10:09:13;10.48;;;2.63;;
56183;SDS011;42086;53.170;6.980;2022-11-03T10:11:42;9.13;;;2.40;;
56183;SDS011;42086;53.170;6.980;2022-11-03T10:14:10;11.43;;;3.03;;
56183;SDS011;42086;53.170;6.980;2022-11-03T10:16:40;7.75;;;2.70;;
56183;SDS011;42086;53.170;6.980;2022-11-03T10:19:13;9.95;;;2.47;;
56183;SDS011;42086;53.170;6.980;2022-11-03T10:21:39;10.88;;;3.05;;
56183;SDS011;42086;53.170;6.980;2022-11-03T10:24:10;7.35;;;2.50;;
56183;SDS011;42086;53.170;6.980;2022-11-03T10:26:58;10.95;;;2.67;;
56183;SDS011;42086;53.170;6.980;2022-11-03T10:29:26;10.90;;;2.60;;
56183;SDS011;42086;53.170;6.980;2022-11-03T10:31:56;14.35;;;2.85;;
56183;SDS011;42086;53.170;6.980;2022-11-03T10:34:24;14.52;;;2.67;;
56183;SDS011;42086;53.170;6.980;2022-11-03T10:37:09;11.68;;;2.80;;
56183;SDS011;42086;53.170;6.980;2022-11-03T10:39:37;7.65;;;2.63;;
56183;SDS011;42086;53.170;6.980;2022-11-03T10:42:03;9.45;;;2.67;;
56183;SDS011;42086;53.170;6.980;2022-11-03T10:44:29;9.32;;;2.88;;
56183;SDS011;42086;53.170;6.980;2022-11-03T10:47:02;10.20;;;2.42;;
56183;SDS011;42086;53.170;6.980;2022-11-03T10:49:31;9.63;;;2.85;;
56183;SDS011;42086;53.170;6.980;2022-11-03T10:52:19;10.63;;;2.55;;
56183;SDS011;42086;53.170;6.980;2022-11-03T10:54:47;10.18;;;2.53;;
56183;SDS011;42086;53.170;6.980;2022-11-03T10:57:14;13.43;;;2.83;;
56183;SDS011;42086;53.170;6.980;2022-11-03T10:59:41;10.63;;;2.50;;
56183;SDS011;42086;53.170;6.980;2022-11-03T11:02:13;9.05;;;2.38;;
56183;SDS011;42086;53.170;6.980;2022-11-03T11:07:25;11.18;;;2.65;;
56183;SDS011;42086;53.170;6.980;2022-11-03T11:10:04;9.38;;;2.55;;
56183;SDS011;42086;53.170;6.980;2022-11-03T11:12:32;7.55;;;2.15;;
56183;SDS011;42086;53.170;6.980;2022-11-03T11:14:59;9.80;;;2.40;;
56183;SDS011;42086;53.170;6.980;2022-11-03T11:17:43;7.40;;;2.22;;
56183;SDS011;42086;53.170;6.980;2022-11-03T11:22:49;8.35;;;2.42;;
56183;SDS011;42086;53.170;6.980;2022-11-03T11:25:18;7.70;;;2.60;;
56183;SDS011;42086;53.170;6.980;2022-11-03T11:32:49;8.80;;;2.30;;
56183;SDS011;42086;53.170;6.980;2022-11-03T11:37:50;10.65;;;2.75;;
56183;SDS011;42086;53.170;6.980;2022-11-03T11:48:30;8.27;;;2.25;;
56183;SDS011;42086;53.170;6.980;2022-11-03T11:50:57;8.93;;;2.63;;
56183;SDS011;42086;53.170;6.980;2022-11-03T11:53:23;9.68;;;2.20;;
56183;SDS011;42086;53.170;6.980;2022-11-03T11:55:51;8.52;;;2.60;;
56183;SDS011;42086;53.170;6.980;2022-11-03T11:58:40;10.63;;;2.40;;
56183;SDS011;42086;53.170;6.980;2022-11-03T12:03:48;9.15;;;2.58;;
56183;SDS011;42086;53.170;6.980;2022-11-03T12:06:15;9.10;;;2.20;;
56183;SDS011;42086;53.170;6.980;2022-11-03T12:08:42;6.00;;;1.90;;
56183;SDS011;42086;53.170;6.980;2022-11-03T12:11:10;9.02;;;2.33;;
56183;SDS011;42086;53.170;6.980;2022-11-03T12:16:07;6.80;;;2.28;;
56183;SDS011;42086;53.170;6.980;2022-11-03T12:18:35;8.30;;;2.28;;
56183;SDS011;42086;53.170;6.980;2022-11-03T12:21:06;7.47;;;2.30;;
56183;SDS011;42086;53.170;6.980;2022-11-03T12:26:11;11.18;;;2.38;;
56183;SDS011;42086;53.170;6.980;2022-11-03T12:28:38;7.28;;;2.22;;
56183;SDS011;42086;53.170;6.980;2022-11-03T12:31:04;9.88;;;2.10;;
56183;SDS011;42086;53.170;6.980;2022-11-03T12:33:29;8.25;;;2.17;;
56183;SDS011;42086;53.170;6.980;2022-11-03T12:35:55;7.72;;;2.03;;
56183;SDS011;42086;53.170;6.980;2022-11-03T12:38:21;6.47;;;2.15;;
56183;SDS011;42086;53.170;6.980;2022-11-03T12:40:48;9.73;;;2.45;;
56183;SDS011;42086;53.170;6.980;2022-11-03T12:43:15;7.75;;;2.20;;
56183;SDS011;42086;53.170;6.980;2022-11-03T12:45:41;12.48;;;2.30;;
56183;SDS011;42086;53.170;6.980;2022-11-03T12:48:07;8.70;;;1.92;;
56183;SDS011;42086;53.170;6.980;2022-11-03T12:50:33;7.55;;;1.90;;
56183;SDS011;42086;53.170;6.980;2022-11-03T12:53:01;10.38;;;1.98;;
56183;SDS011;42086;53.170;6.980;2022-11-03T12:55:28;7.18;;;2.20;;
56183;SDS011;42086;53.170;6.980;2022-11-03T12:57:54;10.05;;;2.22;;
56183;SDS011;42086;53.170;6.980;2022-11-03T13:00:20;10.30;;;2.17;;
56183;SDS011;42086;53.170;6.980;2022-11-03T13:02:45;6.88;;;2.28;;
56183;SDS011;42086;53.170;6.980;2022-11-03T13:05:11;6.95;;;1.75;;
56183;SDS011;42086;53.170;6.980;2022-11-03T13:07:40;6.43;;;1.90;;
56183;SDS011;42086;53.170;6.980;2022-11-03T13:10:09;9.38;;;2.28;;
56183;SDS011;42086;53.170;6.980;2022-11-03T13:12:35;9.32;;;2.10;;
56183;SDS011;42086;53.170;6.980;2022-11-03T13:15:05;9.85;;;2.10;;
56183;SDS011;42086;53.170;6.980;2022-11-03T13:17:32;8.15;;;2.10;;
56183;SDS011;42086;53.170;6.980;2022-11-03T13:19:58;6.65;;;2.17;;
56183;SDS011;42086;53.170;6.980;2022-11-03T13:22:24;6.50;;;1.83;;
56183;SDS011;42086;53.170;6.980;2022-11-03T13:24:50;8.27;;;2.45;;
56183;SDS011;42086;53.170;6.980;2022-11-03T13:27:15;7.18;;;1.95;;
56183;SDS011;42086;53.170;6.980;2022-11-03T13:29:41;7.55;;;2.25;;
56183;SDS011;42086;53.170;6.980;2022-11-03T13:32:07;4.53;;;2.00;;
56183;SDS011;42086;53.170;6.980;2022-11-03T13:34:33;5.45;;;1.85;;
56183;SDS011;42086;53.170;6.980;2022-11-03T13:36:58;7.82;;;2.17;;
56183;SDS011;42086;53.170;6.980;2022-11-03T13:39:24;7.18;;;2.28;;
56183;SDS011;42086;53.170;6.980;2022-11-03T13:41:50;7.10;;;2.10;;
56183;SDS011;42086;53.170;6.980;2022-11-03T13:44:15;7.38;;;2.10;;
56183;SDS011;42086;53.170;6.980;2022-11-03T13:46:41;11.20;;;2.17;;
56183;SDS011;42086;53.170;6.980;2022-11-03T13:49:07;8.25;;;2.10;;
56183;SDS011;42086;53.170;6.980;2022-11-03T13:51:33;9.73;;;2.00;;
56183;SDS011;42086;53.170;6.980;2022-11-03T13:53:58;7.18;;;2.13;;
56183;SDS011;42086;53.170;6.980;2022-11-03T13:56:24;6.13;;;2.05;;
56183;SDS011;42086;53.170;6.980;2022-11-03T13:58:50;9.25;;;2.28;;
56183;SDS011;42086;53.170;6.980;2022-11-03T14:01:15;8.15;;;1.60;;
56183;SDS011;42086;53.170;6.980;2022-11-03T14:03:41;6.90;;;1.80;;
56183;SDS011;42086;53.170;6.980;2022-11-03T14:06:07;10.05;;;2.15;;
56183;SDS011;42086;53.170;6.980;2022-11-03T14:08:33;6.32;;;2.00;;
56183;SDS011;42086;53.170;6.980;2022-11-03T14:10:59;9.23;;;2.00;;
56183;SDS011;42086;53.170;6.980;2022-11-03T14:13:44;8.75;;;1.88;;
56183;SDS011;42086;53.170;6.980;2022-11-03T14:16:10;7.93;;;1.90;;
56183;SDS011;42086;53.170;6.980;2022-11-03T14:18:36;7.93;;;2.05;;
56183;SDS011;42086;53.170;6.980;2022-11-03T14:21:01;5.43;;;1.67;;
56183;SDS011;42086;53.170;6.980;2022-11-03T14:23:27;7.03;;;1.98;;
56183;SDS011;42086;53.170;6.980;2022-11-03T14:25:53;7.85;;;1.88;;
56183;SDS011;42086;53.170;6.980;2022-11-03T14:28:18;6.00;;;1.50;;
56183;SDS011;42086;53.170;6.980;2022-11-03T14:30:44;6.75;;;2.03;;
56183;SDS011;42086;53.170;6.980;2022-11-03T14:33:10;7.15;;;2.47;;
56183;SDS011;42086;53.170;6.980;2022-11-03T14:35:35;8.80;;;2.28;;
56183;SDS011;42086;53.170;6.980;2022-11-03T14:38:01;9.38;;;2.25;;
56183;SDS011;42086;53.170;6.980;2022-11-03T14:40:27;5.93;;;1.80;;
56183;SDS011;42086;53.170;6.980;2022-11-03T14:43:11;5.57;;;1.80;;
56183;SDS011;42086;53.170;6.980;2022-11-03T14:45:36;6.55;;;2.28;;
56183;SDS011;42086;53.170;6.980;2022-11-03T14:48:02;9.48;;;1.98;;
56183;SDS011;42086;53.170;6.980;2022-11-03T14:50:28;11.75;;;2.15;;
56183;SDS011;42086;53.170;6.980;2022-11-03T14:52:53;9.98;;;2.10;;
56183;SDS011;42086;53.170;6.980;2022-11-03T14:55:19;8.40;;;1.88;;
56183;SDS011;42086;53.170;6.980;2022-11-03T14:57:45;7.22;;;1.75;;
56183;SDS011;42086;53.170;6.980;2022-11-03T15:00:10;10.45;;;2.10;;
56183;SDS011;42086;53.170;6.980;2022-11-03T15:02:36;9.63;;;1.85;;
56183;SDS011;42086;53.170;6.980;2022-11-03T15:05:02;8.15;;;2.00;;
56183;SDS011;42086;53.170;6.980;2022-11-03T15:07:28;6.70;;;2.17;;
56183;SDS011;42086;53.170;6.980;2022-11-03T15:09:54;7.25;;;1.83;;
56183;SDS011;42086;53.170;6.980;2022-11-03T15:12:20;8.82;;;2.00;;
56183;SDS011;42086;53.170;6.980;2022-11-03T15:14:45;11.68;;;1.88;;
56183;SDS011;42086;53.170;6.980;2022-11-03T15:17:11;7.32;;;1.60;;
56183;SDS011;42086;53.170;6.980;2022-11-03T15:19:37;8.68;;;1.88;;
56183;SDS011;42086;53.170;6.980;2022-11-03T15:22:03;5.20;;;1.63;;
56183;SDS011;42086;53.170;6.980;2022-11-03T15:24:29;6.32;;;2.03;;
56183;SDS011;42086;53.170;6.980;2022-11-03T15:26:54;7.80;;;2.10;;
56183;SDS011;42086;53.170;6.980;2022-11-03T15:29:20;5.63;;;1.73;;
56183;SDS011;42086;53.170;6.980;2022-11-03T15:31:47;8.52;;;1.88;;
56183;SDS011;42086;53.170;6.980;2022-11-03T15:34:13;8.38;;;1.98;;
56183;SDS011;42086;53.170;6.980;2022-11-03T15:36:39;7.72;;;2.13;;
56183;SDS011;42086;53.170;6.980;2022-11-03T15:39:05;5.00;;;1.80;;
56183;SDS011;42086;53.170;6.980;2022-11-03T15:41:31;7.05;;;1.85;;
56183;SDS011;42086;53.170;6.980;2022-11-03T15:43:57;6.10;;;1.70;;
56183;SDS011;42086;53.170;6.980;2022-11-03T15:46:22;6.07;;;1.95;;
56183;SDS011;42086;53.170;6.980;2022-11-03T15:48:48;6.95;;;2.03;;
56183;SDS011;42086;53.170;6.980;2022-11-03T15:51:14;7.78;;;2.00;;
56183;SDS011;42086;53.170;6.980;2022-11-03T15:53:40;8.77;;;2.10;;
56183;SDS011;42086;53.170;6.980;2022-11-03T15:56:06;6.97;;;2.25;;
56183;SDS011;42086;53.170;6.980;2022-11-03T15:58:32;10.40;;;2.28;;
56183;SDS011;42086;53.170;6.980;2022-11-03T16:00:59;4.93;;;1.77;;
56183;SDS011;42086;53.170;6.980;2022-11-03T16:03:28;5.18;;;1.92;;
56183;SDS011;42086;53.170;6.980;2022-11-03T16:05:55;7.05;;;2.00;;
56183;SDS011;42086;53.170;6.980;2022-11-03T16:08:21;5.95;;;1.70;;
56183;SDS011;42086;53.170;6.980;2022-11-03T16:10:47;6.50;;;2.00;;
56183;SDS011;42086;53.170;6.980;2022-11-03T16:13:13;7.07;;;2.08;;
56183;SDS011;42086;53.170;6.980;2022-11-03T16:15:39;8.82;;;2.40;;
56183;SDS011;42086;53.170;6.980;2022-11-03T16:18:04;10.40;;;2.30;;